createdAt,value
2019-04-04T17:13:46.445Z,2.10
2019-04-04T17:16:14.840Z,2.02
2019-04-04T17:18:43.164Z,1.98
2019-04-04T17:21:11.429Z,2.02
2019-04-04T17:23:39.714Z,2.01
2019-04-04T17:26:07.992Z,1.99
2019-04-04T17:28:36.422Z,2.00
2019-04-04T17:31:07.112Z,1.90
2019-04-04T17:33:34.777Z,1.89
2019-04-04T17:36:03.022Z,1.90
2019-04-04T17:38:31.761Z,1.90
2019-04-04T17:41:00.006Z,1.93
2019-04-04T17:43:28.751Z,1.93
2019-04-04T17:45:57.577Z,1.95
2019-04-04T17:48:25.863Z,1.94
2019-04-04T17:50:54.095Z,1.93
2019-04-04T17:53:22.514Z,1.96
2019-04-04T17:55:50.858Z,1.93
2019-04-04T17:58:19.538Z,1.87
2019-04-04T18:00:47.938Z,1.89
2019-04-04T18:03:16.208Z,1.90
2019-04-04T18:05:44.535Z,1.91
2019-04-04T18:08:15.910Z,1.92
2019-04-04T18:10:44.169Z,1.91
2019-04-04T18:13:12.439Z,1.94
2019-04-04T18:15:40.680Z,1.93
2019-04-04T18:18:09.923Z,1.94
2019-04-04T18:20:38.185Z,1.92
2019-04-04T18:23:06.471Z,1.92
2019-04-04T18:25:34.816Z,1.95
2019-04-04T18:28:03.048Z,1.95
2019-04-04T18:30:31.291Z,2.00
2019-04-04T18:32:59.574Z,1.96
2019-04-04T18:35:27.888Z,1.93
2019-04-04T18:37:56.356Z,1.91
2019-04-04T18:40:24.598Z,1.94
2019-04-04T18:42:53.939Z,1.92
2019-04-04T18:45:22.308Z,1.90
2019-04-04T18:47:50.551Z,1.88
2019-04-04T18:50:18.829Z,1.88
2019-04-04T18:52:47.073Z,1.87
2019-04-04T18:55:20.049Z,1.85
2019-04-04T18:57:45.307Z,1.77
2019-04-04T19:00:14.488Z,1.79
2019-04-04T19:02:42.052Z,1.75
2019-04-04T19:05:10.338Z,1.69
2019-04-04T19:07:39.857Z,1.72
2019-04-04T19:10:09.882Z,1.73
2019-04-04T19:12:37.526Z,1.74
2019-04-04T19:15:07.789Z,1.71
2019-04-04T19:17:36.296Z,1.74
2019-04-04T19:20:10.189Z,1.80
2019-04-04T19:22:38.729Z,1.83
2019-04-04T19:25:07.066Z,1.89
2019-04-04T19:27:35.324Z,2.00
2019-04-04T19:30:09.921Z,2.07
2019-04-04T19:32:38.181Z,2.13
2019-04-04T19:35:07.093Z,2.20
2019-04-04T19:37:35.543Z,2.26
2019-04-04T19:40:04.972Z,2.13
2019-04-04T19:42:40.266Z,2.07
2019-04-04T19:45:08.544Z,2.16
2019-04-04T19:47:36.798Z,2.11
2019-04-04T19:50:08.337Z,2.10
2019-04-04T19:52:36.675Z,2.16
2019-04-04T19:55:05.329Z,2.19
2019-04-04T19:57:33.568Z,2.21
2019-04-04T20:00:01.853Z,2.08
2019-04-04T20:02:30.095Z,2.13
2019-04-04T20:04:58.366Z,2.12
2019-04-04T20:07:26.643Z,2.04
2019-04-04T20:09:54.920Z,2.07
2019-04-04T20:12:23.169Z,2.02
2019-04-04T20:14:51.514Z,2.02
2019-04-04T20:17:19.771Z,2.00
2019-04-04T20:19:48.087Z,1.98
2019-04-04T20:22:16.315Z,1.97
2019-04-04T20:24:44.952Z,2.02
2019-04-04T20:27:13.215Z,2.03
2019-04-04T20:29:41.462Z,2.07
2019-04-04T20:32:09.742Z,2.09
2019-04-04T20:34:38.946Z,2.06
2019-04-04T20:37:07.225Z,2.06
2019-04-04T20:39:35.463Z,2.01
2019-04-04T20:42:03.801Z,1.97
2019-04-04T20:44:32.050Z,1.98
2019-04-04T20:47:00.418Z,1.91
2019-04-04T20:49:29.196Z,1.88
2019-04-04T20:51:57.547Z,1.79
2019-04-04T20:54:25.882Z,1.81
2019-04-04T20:56:54.276Z,1.85
2019-04-04T20:59:22.802Z,1.83
2019-04-04T21:01:51.340Z,1.78
2019-04-04T21:04:19.863Z,1.74
2019-04-04T21:06:48.270Z,1.72
2019-04-04T21:09:16.641Z,1.70
2019-04-04T21:11:44.913Z,1.73
2019-04-04T21:14:13.557Z,1.72
2019-04-04T21:16:41.881Z,1.77
2019-04-04T21:19:11.087Z,1.74
2019-04-04T21:21:39.513Z,1.72
2019-04-04T21:24:07.906Z,1.77
2019-04-04T21:26:36.183Z,1.82
2019-04-04T21:29:04.432Z,1.79
2019-04-04T21:31:32.726Z,1.71
2019-04-04T21:34:00.979Z,1.79
2019-04-04T21:36:29.256Z,1.80
2019-04-04T21:38:57.516Z,1.80
2019-04-04T21:41:25.799Z,1.84
2019-04-04T21:43:54.046Z,1.84
2019-04-04T21:46:22.412Z,1.90
2019-04-04T21:48:50.679Z,1.91
2019-04-04T21:51:18.918Z,1.93
2019-04-04T21:53:47.181Z,1.97
2019-04-04T21:56:15.466Z,2.05
2019-04-04T21:58:43.747Z,2.59
2019-04-04T22:01:12.167Z,2.32
2019-04-04T22:03:40.446Z,2.10
2019-04-04T22:06:08.702Z,1.93
2019-04-04T22:08:36.979Z,1.89
2019-04-04T22:11:05.267Z,1.85
2019-04-04T22:13:33.578Z,1.89
2019-04-04T22:16:01.827Z,1.87
2019-04-04T22:18:30.103Z,1.92
2019-04-04T22:20:58.355Z,1.93
2019-04-04T22:23:26.635Z,1.89
2019-04-04T22:25:54.890Z,1.88
2019-04-04T22:28:23.166Z,1.93
2019-04-04T22:30:51.406Z,1.98
2019-04-04T22:33:19.683Z,1.97
2019-04-04T22:35:47.949Z,2.00
2019-04-04T22:38:16.237Z,1.94
2019-04-04T22:40:44.510Z,2.00
2019-04-04T22:43:12.775Z,1.95
2019-04-04T22:45:41.024Z,1.84
2019-04-04T22:48:09.450Z,1.86
2019-04-04T22:50:37.695Z,1.81
2019-04-04T22:53:05.957Z,1.78
2019-04-04T22:55:34.273Z,1.78
2019-04-04T22:58:02.548Z,1.81
2019-04-04T23:00:30.796Z,1.83
2019-04-04T23:03:00.645Z,1.85
2019-04-04T23:05:28.273Z,1.88
2019-04-04T23:07:56.532Z,1.87
2019-04-04T23:10:24.777Z,1.92
2019-04-04T23:12:53.059Z,1.90
2019-04-04T23:15:21.313Z,1.87
2019-04-04T23:17:49.688Z,1.89
2019-04-04T23:20:17.961Z,1.93
2019-04-04T23:22:52.694Z,1.88
2019-04-04T23:25:16.205Z,1.87
2019-04-04T23:27:44.487Z,1.85
2019-04-04T23:30:12.919Z,1.82
2019-04-04T23:32:41.174Z,1.85
2019-04-04T23:35:09.457Z,1.89
2019-04-04T23:37:37.701Z,1.85
2019-04-04T23:40:05.969Z,1.90
2019-04-04T23:42:34.287Z,1.93
2019-04-04T23:45:02.561Z,1.95
2019-04-04T23:47:42.172Z,2.01
2019-04-04T23:50:00.792Z,2.08
2019-04-04T23:52:29.110Z,2.14
2019-04-04T23:54:57.385Z,2.24
2019-04-04T23:57:25.645Z,2.31
2019-04-04T23:59:53.999Z,2.38
